CheckWX is a tool to help pilots better visualize weather data.  It is not intended as a substitute for an official pre-flight weather briefing.

02:16:36 UTC

KLCK TAF
Rickenbacker International Airport
Columbus, Ohio, USA
KLCK 152335Z 1600/1624 21010KT P6SM VCSH BKN060 FM160200 23004KT P6SM SCT050 BKN120 FM160500 17005KT P6SM BKN100 FM161900 19010G20KT P6SM BKN040

Jul-16@
00:00 UTC

Jul-16 @ 00:00 UTC

Jul-16@
02:00 UTC

Jul-16 @ 02:00 UTC

KLCK 152335Z 1600/1624 21010KT P6SM VCSH BKN060

Expired

Wind
  • 210° at 10 KTS
Cloud Levels
  • Broken at 6,000' AGL

Jul-16@
02:00 UTC

Jul-16 @ 02:00 UTC

Jul-16@
05:00 UTC

Jul-16 @ 05:00 UTC

FM160200 23004KT P6SM SCT050 BKN120

From

From Standard forecast or significant change

Wind
  • 230° at 4 KTS
Cloud Levels
  • Scattered at 5,000' AGL
  • Broken at 12,000' AGL

Jul-16@
05:00 UTC

Jul-16 @ 05:00 UTC

Jul-16@
19:00 UTC

Jul-16 @ 19:00 UTC

FM160500 17005KT P6SM BKN100

From

From Standard forecast or significant change

Wind
  • 170° at 5 KTS
Cloud Levels
  • Broken at 10,000' AGL

Jul-16@
19:00 UTC

Jul-16 @ 19:00 UTC

Jul-17@
00:00 UTC

Jul-17 @ 00:00 UTC

FM161900 19010G20KT P6SM BKN040

From

From Standard forecast or significant change

Wind
  • 190° at 10 KTS
  • {Gusting to 20 KTS
Cloud Levels
  • Broken at 4,000' AGL